sensor_id;sensor_type;location;lat;lon;timestamp;P1;durP1;ratioP1;P2;durP2;ratioP2
10347;SDS011;5220;43.192;23.284;2023-01-28T00:01:49;30.13;;;18.77;;
10347;SDS011;5220;43.192;23.284;2023-01-28T00:04:16;31.03;;;20.13;;
10347;SDS011;5220;43.192;23.284;2023-01-28T00:06:42;28.73;;;20.57;;
10347;SDS011;5220;43.192;23.284;2023-01-28T00:09:09;28.43;;;18.83;;
10347;SDS011;5220;43.192;23.284;2023-01-28T00:11:37;27.67;;;19.87;;
10347;SDS011;5220;43.192;23.284;2023-01-28T00:14:04;29.47;;;20.30;;
10347;SDS011;5220;43.192;23.284;2023-01-28T00:16:31;32.77;;;21.37;;
10347;SDS011;5220;43.192;23.284;2023-01-28T00:18:58;30.60;;;20.90;;
10347;SDS011;5220;43.192;23.284;2023-01-28T00:21:24;28.57;;;20.63;;
10347;SDS011;5220;43.192;23.284;2023-01-28T00:23:52;28.63;;;20.40;;
10347;SDS011;5220;43.192;23.284;2023-01-28T00:26:20;24.77;;;17.80;;
10347;SDS011;5220;43.192;23.284;2023-01-28T00:28:49;27.63;;;19.27;;
10347;SDS011;5220;43.192;23.284;2023-01-28T00:31:16;24.97;;;17.60;;
10347;SDS011;5220;43.192;23.284;2023-01-28T00:33:44;24.00;;;16.30;;
10347;SDS011;5220;43.192;23.284;2023-01-28T00:36:13;24.23;;;17.30;;
10347;SDS011;5220;43.192;23.284;2023-01-28T00:38:41;22.77;;;16.30;;
10347;SDS011;5220;43.192;23.284;2023-01-28T00:41:08;24.10;;;17.17;;
10347;SDS011;5220;43.192;23.284;2023-01-28T00:43:35;27.00;;;17.80;;
10347;SDS011;5220;43.192;23.284;2023-01-28T00:46:04;27.23;;;20.00;;
10347;SDS011;5220;43.192;23.284;2023-01-28T00:48:31;38.63;;;26.57;;
10347;SDS011;5220;43.192;23.284;2023-01-28T00:50:58;32.90;;;23.43;;
10347;SDS011;5220;43.192;23.284;2023-01-28T00:53:25;32.27;;;23.10;;
10347;SDS011;5220;43.192;23.284;2023-01-28T00:55:52;30.53;;;20.80;;
10347;SDS011;5220;43.192;23.284;2023-01-28T00:58:19;27.23;;;18.80;;
10347;SDS011;5220;43.192;23.284;2023-01-28T01:00:48;24.80;;;19.13;;
10347;SDS011;5220;43.192;23.284;2023-01-28T01:03:16;27.03;;;18.90;;
10347;SDS011;5220;43.192;23.284;2023-01-28T01:05:43;23.23;;;17.17;;
10347;SDS011;5220;43.192;23.284;2023-01-28T01:08:10;23.77;;;16.03;;
10347;SDS011;5220;43.192;23.284;2023-01-28T01:10:36;20.73;;;15.47;;
10347;SDS011;5220;43.192;23.284;2023-01-28T01:13:04;21.50;;;15.30;;
10347;SDS011;5220;43.192;23.284;2023-01-28T01:15:31;23.80;;;16.93;;
10347;SDS011;5220;43.192;23.284;2023-01-28T01:17:58;23.20;;;16.43;;
10347;SDS011;5220;43.192;23.284;2023-01-28T01:20:27;26.67;;;19.10;;
10347;SDS011;5220;43.192;23.284;2023-01-28T01:22:57;28.13;;;21.57;;
10347;SDS011;5220;43.192;23.284;2023-01-28T01:25:24;28.17;;;22.10;;
10347;SDS011;5220;43.192;23.284;2023-01-28T01:27:51;26.57;;;20.43;;
10347;SDS011;5220;43.192;23.284;2023-01-28T01:30:18;25.60;;;19.23;;
10347;SDS011;5220;43.192;23.284;2023-01-28T01:32:45;23.20;;;18.00;;
10347;SDS011;5220;43.192;23.284;2023-01-28T01:35:12;20.33;;;15.93;;
10347;SDS011;5220;43.192;23.284;2023-01-28T01:37:42;16.70;;;13.47;;
10347;SDS011;5220;43.192;23.284;2023-01-28T01:40:10;16.07;;;11.50;;
10347;SDS011;5220;43.192;23.284;2023-01-28T01:42:37;11.63;;;9.30;;
10347;SDS011;5220;43.192;23.284;2023-01-28T01:45:04;10.83;;;8.47;;
10347;SDS011;5220;43.192;23.284;2023-01-28T01:47:35;9.03;;;6.20;;
10347;SDS011;5220;43.192;23.284;2023-01-28T01:50:10;5.60;;;4.20;;
10347;SDS011;5220;43.192;23.284;2023-01-28T01:52:43;4.63;;;3.83;;
10347;SDS011;5220;43.192;23.284;2023-01-28T01:55:15;3.13;;;2.80;;
10347;SDS011;5220;43.192;23.284;2023-01-28T01:57:43;4.47;;;3.70;;
10347;SDS011;5220;43.192;23.284;2023-01-28T02:00:13;3.50;;;2.77;;
10347;SDS011;5220;43.192;23.284;2023-01-28T02:02:41;3.43;;;3.13;;
10347;SDS011;5220;43.192;23.284;2023-01-28T02:05:12;5.30;;;3.73;;
10347;SDS011;5220;43.192;23.284;2023-01-28T02:07:40;3.73;;;3.33;;
10347;SDS011;5220;43.192;23.284;2023-01-28T02:10:11;3.63;;;3.30;;
10347;SDS011;5220;43.192;23.284;2023-01-28T02:12:39;2.70;;;2.50;;
10347;SDS011;5220;43.192;23.284;2023-01-28T02:15:09;3.23;;;2.93;;
10347;SDS011;5220;43.192;23.284;2023-01-28T02:17:38;3.87;;;2.97;;
10347;SDS011;5220;43.192;23.284;2023-01-28T02:20:06;4.00;;;3.10;;
10347;SDS011;5220;43.192;23.284;2023-01-28T02:22:53;7.07;;;5.53;;
10347;SDS011;5220;43.192;23.284;2023-01-28T02:25:36;8.10;;;6.63;;
10347;SDS011;5220;43.192;23.284;2023-01-28T02:28:23;6.13;;;5.40;;
10347;SDS011;5220;43.192;23.284;2023-01-28T02:30:56;6.23;;;4.90;;
10347;SDS011;5220;43.192;23.284;2023-01-28T02:33:31;9.17;;;5.67;;
10347;SDS011;5220;43.192;23.284;2023-01-28T02:36:06;8.20;;;5.60;;
10347;SDS011;5220;43.192;23.284;2023-01-28T02:38:40;7.87;;;4.90;;
10347;SDS011;5220;43.192;23.284;2023-01-28T02:41:12;4.83;;;4.17;;
10347;SDS011;5220;43.192;23.284;2023-01-28T02:43:47;6.40;;;4.90;;
10347;SDS011;5220;43.192;23.284;2023-01-28T02:46:17;7.93;;;4.60;;
10347;SDS011;5220;43.192;23.284;2023-01-28T02:49:05;4.47;;;4.07;;
10347;SDS011;5220;43.192;23.284;2023-01-28T02:51:39;4.93;;;3.90;;
10347;SDS011;5220;43.192;23.284;2023-01-28T02:54:17;4.40;;;3.87;;
10347;SDS011;5220;43.192;23.284;2023-01-28T02:56:54;5.03;;;4.10;;
10347;SDS011;5220;43.192;23.284;2023-01-28T02:59:27;5.10;;;4.27;;
10347;SDS011;5220;43.192;23.284;2023-01-28T03:02:02;9.23;;;4.20;;
10347;SDS011;5220;43.192;23.284;2023-01-28T03:04:37;7.30;;;5.50;;
10347;SDS011;5220;43.192;23.284;2023-01-28T03:07:09;8.13;;;6.20;;
10347;SDS011;5220;43.192;23.284;2023-01-28T03:09:39;6.80;;;5.10;;
10347;SDS011;5220;43.192;23.284;2023-01-28T03:12:09;5.53;;;4.50;;
10347;SDS011;5220;43.192;23.284;2023-01-28T03:14:59;6.50;;;5.20;;
10347;SDS011;5220;43.192;23.284;2023-01-28T03:17:47;5.80;;;4.97;;
10347;SDS011;5220;43.192;23.284;2023-01-28T03:20:37;6.53;;;5.33;;
10347;SDS011;5220;43.192;23.284;2023-01-28T03:23:26;6.07;;;5.47;;
10347;SDS011;5220;43.192;23.284;2023-01-28T03:26:20;6.43;;;5.57;;
10347;SDS011;5220;43.192;23.284;2023-01-28T03:29:08;7.60;;;5.77;;
10347;SDS011;5220;43.192;23.284;2023-01-28T03:31:56;5.90;;;4.83;;
10347;SDS011;5220;43.192;23.284;2023-01-28T03:34:42;5.87;;;5.10;;
10347;SDS011;5220;43.192;23.284;2023-01-28T03:37:28;6.03;;;5.30;;
10347;SDS011;5220;43.192;23.284;2023-01-28T03:39:56;6.13;;;5.27;;
10347;SDS011;5220;43.192;23.284;2023-01-28T03:42:29;7.13;;;5.43;;
10347;SDS011;5220;43.192;23.284;2023-01-28T03:44:56;6.93;;;5.60;;
10347;SDS011;5220;43.192;23.284;2023-01-28T03:47:25;7.23;;;6.37;;
10347;SDS011;5220;43.192;23.284;2023-01-28T03:49:54;6.20;;;5.60;;
10347;SDS011;5220;43.192;23.284;2023-01-28T03:52:24;5.83;;;5.23;;
10347;SDS011;5220;43.192;23.284;2023-01-28T03:54:52;6.87;;;5.63;;
10347;SDS011;5220;43.192;23.284;2023-01-28T03:57:19;6.80;;;5.50;;
10347;SDS011;5220;43.192;23.284;2023-01-28T03:59:47;6.40;;;5.50;;
10347;SDS011;5220;43.192;23.284;2023-01-28T04:02:15;7.40;;;5.40;;
10347;SDS011;5220;43.192;23.284;2023-01-28T04:04:43;9.30;;;7.37;;
10347;SDS011;5220;43.192;23.284;2023-01-28T04:07:11;8.70;;;7.23;;
10347;SDS011;5220;43.192;23.284;2023-01-28T04:09:39;8.10;;;7.20;;
10347;SDS011;5220;43.192;23.284;2023-01-28T04:12:06;8.60;;;6.90;;
10347;SDS011;5220;43.192;23.284;2023-01-28T04:14:34;8.17;;;7.10;;
10347;SDS011;5220;43.192;23.284;2023-01-28T04:17:01;8.37;;;7.00;;
10347;SDS011;5220;43.192;23.284;2023-01-28T04:19:28;7.87;;;6.87;;
10347;SDS011;5220;43.192;23.284;2023-01-28T04:22:02;7.33;;;6.40;;
10347;SDS011;5220;43.192;23.284;2023-01-28T04:24:30;6.80;;;5.97;;
10347;SDS011;5220;43.192;23.284;2023-01-28T04:26:58;7.07;;;5.97;;
10347;SDS011;5220;43.192;23.284;2023-01-28T04:29:25;6.23;;;5.33;;
10347;SDS011;5220;43.192;23.284;2023-01-28T04:31:51;6.17;;;5.57;;
10347;SDS011;5220;43.192;23.284;2023-01-28T04:34:18;6.47;;;5.80;;
10347;SDS011;5220;43.192;23.284;2023-01-28T04:36:45;6.73;;;5.77;;
10347;SDS011;5220;43.192;23.284;2023-01-28T04:39:13;7.23;;;5.70;;
10347;SDS011;5220;43.192;23.284;2023-01-28T04:41:40;7.23;;;5.93;;
10347;SDS011;5220;43.192;23.284;2023-01-28T04:44:07;5.27;;;4.77;;
10347;SDS011;5220;43.192;23.284;2023-01-28T04:46:33;4.23;;;3.30;;
10347;SDS011;5220;43.192;23.284;2023-01-28T04:49:00;9.43;;;3.67;;
10347;SDS011;5220;43.192;23.284;2023-01-28T04:51:27;3.57;;;3.27;;
10347;SDS011;5220;43.192;23.284;2023-01-28T04:53:54;4.17;;;3.77;;
10347;SDS011;5220;43.192;23.284;2023-01-28T04:56:22;5.37;;;3.70;;
10347;SDS011;5220;43.192;23.284;2023-01-28T04:58:49;4.13;;;3.43;;
10347;SDS011;5220;43.192;23.284;2023-01-28T05:01:15;3.93;;;3.60;;
10347;SDS011;5220;43.192;23.284;2023-01-28T05:03:42;4.80;;;3.83;;
10347;SDS011;5220;43.192;23.284;2023-01-28T05:06:09;3.87;;;3.57;;
10347;SDS011;5220;43.192;23.284;2023-01-28T05:08:36;4.07;;;3.67;;
10347;SDS011;5220;43.192;23.284;2023-01-28T05:11:02;2.70;;;2.50;;
10347;SDS011;5220;43.192;23.284;2023-01-28T05:13:31;3.47;;;3.17;;
10347;SDS011;5220;43.192;23.284;2023-01-28T05:15:57;3.67;;;3.20;;
10347;SDS011;5220;43.192;23.284;2023-01-28T05:18:24;3.30;;;3.00;;
10347;SDS011;5220;43.192;23.284;2023-01-28T05:20:51;3.27;;;2.97;;
10347;SDS011;5220;43.192;23.284;2023-01-28T05:23:17;4.30;;;2.57;;
10347;SDS011;5220;43.192;23.284;2023-01-28T05:25:44;3.10;;;2.80;;
10347;SDS011;5220;43.192;23.284;2023-01-28T05:28:11;2.90;;;2.63;;
10347;SDS011;5220;43.192;23.284;2023-01-28T05:30:39;2.27;;;2.07;;
10347;SDS011;5220;43.192;23.284;2023-01-28T05:33:05;2.67;;;2.47;;
10347;SDS011;5220;43.192;23.284;2023-01-28T05:35:32;3.50;;;2.87;;
10347;SDS011;5220;43.192;23.284;2023-01-28T05:38:00;8.03;;;4.50;;
10347;SDS011;5220;43.192;23.284;2023-01-28T05:40:27;4.53;;;4.03;;
10347;SDS011;5220;43.192;23.284;2023-01-28T05:42:54;5.00;;;4.50;;
10347;SDS011;5220;43.192;23.284;2023-01-28T05:45:20;4.57;;;4.10;;
10347;SDS011;5220;43.192;23.284;2023-01-28T05:47:48;4.67;;;4.23;;
10347;SDS011;5220;43.192;23.284;2023-01-28T05:50:15;3.57;;;3.27;;
10347;SDS011;5220;43.192;23.284;2023-01-28T05:52:42;2.80;;;2.60;;
10347;SDS011;5220;43.192;23.284;2023-01-28T05:55:09;3.57;;;2.70;;
10347;SDS011;5220;43.192;23.284;2023-01-28T05:57:35;3.53;;;3.10;;
10347;SDS011;5220;43.192;23.284;2023-01-28T06:00:02;2.23;;;2.03;;
10347;SDS011;5220;43.192;23.284;2023-01-28T06:02:30;2.67;;;2.47;;
10347;SDS011;5220;43.192;23.284;2023-01-28T06:04:58;2.50;;;2.30;;
10347;SDS011;5220;43.192;23.284;2023-01-28T06:07:25;2.50;;;2.30;;
10347;SDS011;5220;43.192;23.284;2023-01-28T06:09:52;2.73;;;2.00;;
10347;SDS011;5220;43.192;23.284;2023-01-28T06:12:19;2.20;;;2.00;;
10347;SDS011;5220;43.192;23.284;2023-01-28T06:14:45;2.77;;;2.03;;
10347;SDS011;5220;43.192;23.284;2023-01-28T06:17:12;2.50;;;2.30;;
10347;SDS011;5220;43.192;23.284;2023-01-28T06:19:39;2.40;;;2.20;;
10347;SDS011;5220;43.192;23.284;2023-01-28T06:22:07;2.83;;;2.20;;
10347;SDS011;5220;43.192;23.284;2023-01-28T06:24:33;2.13;;;1.80;;
10347;SDS011;5220;43.192;23.284;2023-01-28T06:27:00;1.97;;;1.87;;
10347;SDS011;5220;43.192;23.284;2023-01-28T06:29:27;1.57;;;1.47;;
10347;SDS011;5220;43.192;23.284;2023-01-28T06:31:53;1.50;;;1.40;;
10347;SDS011;5220;43.192;23.284;2023-01-28T06:34:20;2.43;;;1.80;;
10347;SDS011;5220;43.192;23.284;2023-01-28T06:36:47;1.57;;;1.47;;
10347;SDS011;5220;43.192;23.284;2023-01-28T06:39:16;1.60;;;1.50;;
10347;SDS011;5220;43.192;23.284;2023-01-28T06:41:43;1.90;;;1.80;;
10347;SDS011;5220;43.192;23.284;2023-01-28T06:44:09;1.80;;;1.60;;
10347;SDS011;5220;43.192;23.284;2023-01-28T06:46:36;1.60;;;1.50;;
10347;SDS011;5220;43.192;23.284;2023-01-28T06:49:03;2.30;;;2.10;;
10347;SDS011;5220;43.192;23.284;2023-01-28T06:51:30;4.87;;;4.00;;
10347;SDS011;5220;43.192;23.284;2023-01-28T06:53:57;3.67;;;3.33;;
10347;SDS011;5220;43.192;23.284;2023-01-28T06:56:25;8.37;;;6.87;;
10347;SDS011;5220;43.192;23.284;2023-01-28T06:58:51;8.67;;;5.83;;
10347;SDS011;5220;43.192;23.284;2023-01-28T07:01:18;6.03;;;4.70;;
10347;SDS011;5220;43.192;23.284;2023-01-28T07:03:45;5.80;;;4.20;;
10347;SDS011;5220;43.192;23.284;2023-01-28T07:06:11;4.07;;;3.40;;
10347;SDS011;5220;43.192;23.284;2023-01-28T07:08:38;3.40;;;3.10;;
10347;SDS011;5220;43.192;23.284;2023-01-28T07:11:05;5.20;;;4.37;;
10347;SDS011;5220;43.192;23.284;2023-01-28T07:13:33;3.70;;;3.40;;
10347;SDS011;5220;43.192;23.284;2023-01-28T07:16:00;4.10;;;3.70;;
10347;SDS011;5220;43.192;23.284;2023-01-28T07:18:28;4.00;;;3.60;;
10347;SDS011;5220;43.192;23.284;2023-01-28T07:20:55;3.57;;;3.23;;
10347;SDS011;5220;43.192;23.284;2023-01-28T07:23:21;3.40;;;3.10;;
10347;SDS011;5220;43.192;23.284;2023-01-28T07:25:48;3.70;;;3.37;;
10347;SDS011;5220;43.192;23.284;2023-01-28T07:28:15;4.20;;;3.80;;
10347;SDS011;5220;43.192;23.284;2023-01-28T07:30:47;4.67;;;3.73;;
10347;SDS011;5220;43.192;23.284;2023-01-28T07:33:14;5.30;;;4.67;;
10347;SDS011;5220;43.192;23.284;2023-01-28T07:35:41;4.23;;;3.83;;
10347;SDS011;5220;43.192;23.284;2023-01-28T07:38:07;3.37;;;3.07;;
10347;SDS011;5220;43.192;23.284;2023-01-28T07:40:34;3.37;;;3.07;;
10347;SDS011;5220;43.192;23.284;2023-01-28T07:43:01;2.97;;;2.70;;
10347;SDS011;5220;43.192;23.284;2023-01-28T07:45:27;6.13;;;5.53;;
10347;SDS011;5220;43.192;23.284;2023-01-28T07:47:57;9.17;;;7.70;;
10347;SDS011;5220;43.192;23.284;2023-01-28T07:50:25;7.63;;;6.53;;
10347;SDS011;5220;43.192;23.284;2023-01-28T07:52:53;11.00;;;8.17;;
10347;SDS011;5220;43.192;23.284;2023-01-28T07:55:20;14.20;;;9.80;;
10347;SDS011;5220;43.192;23.284;2023-01-28T07:57:48;25.10;;;16.33;;
10347;SDS011;5220;43.192;23.284;2023-01-28T08:00:16;32.97;;;20.87;;
10347;SDS011;5220;43.192;23.284;2023-01-28T08:02:43;35.23;;;23.00;;
10347;SDS011;5220;43.192;23.284;2023-01-28T08:05:14;22.30;;;16.00;;
10347;SDS011;5220;43.192;23.284;2023-01-28T08:07:43;20.73;;;15.10;;
10347;SDS011;5220;43.192;23.284;2023-01-28T08:10:10;14.57;;;11.60;;
10347;SDS011;5220;43.192;23.284;2023-01-28T08:12:37;10.93;;;9.37;;
10347;SDS011;5220;43.192;23.284;2023-01-28T08:15:05;11.67;;;10.27;;
10347;SDS011;5220;43.192;23.284;2023-01-28T08:17:32;8.20;;;7.20;;
10347;SDS011;5220;43.192;23.284;2023-01-28T08:19:59;5.23;;;4.63;;
10347;SDS011;5220;43.192;23.284;2023-01-28T08:22:27;3.77;;;3.40;;
10347;SDS011;5220;43.192;23.284;2023-01-28T08:24:54;5.23;;;4.73;;
10347;SDS011;5220;43.192;23.284;2023-01-28T08:27:21;6.87;;;4.53;;
10347;SDS011;5220;43.192;23.284;2023-01-28T08:29:47;3.37;;;3.07;;
10347;SDS011;5220;43.192;23.284;2023-01-28T08:32:14;3.63;;;3.33;;
10347;SDS011;5220;43.192;23.284;2023-01-28T08:34:41;5.73;;;4.63;;
10347;SDS011;5220;43.192;23.284;2023-01-28T08:37:07;22.37;;;16.17;;
10347;SDS011;5220;43.192;23.284;2023-01-28T08:39:35;8.37;;;6.10;;
10347;SDS011;5220;43.192;23.284;2023-01-28T08:42:02;3.70;;;3.37;;
10347;SDS011;5220;43.192;23.284;2023-01-28T08:44:30;2.60;;;2.40;;
10347;SDS011;5220;43.192;23.284;2023-01-28T08:46:57;5.93;;;4.17;;
10347;SDS011;5220;43.192;23.284;2023-01-28T08:49:24;13.27;;;12.07;;
10347;SDS011;5220;43.192;23.284;2023-01-28T08:51:50;14.20;;;12.90;;
10347;SDS011;5220;43.192;23.284;2023-01-28T08:54:17;12.23;;;11.20;;
10347;SDS011;5220;43.192;23.284;2023-01-28T08:56:45;8.40;;;7.67;;
10347;SDS011;5220;43.192;23.284;2023-01-28T08:59:12;6.17;;;5.67;;
10347;SDS011;5220;43.192;23.284;2023-01-28T09:01:39;4.73;;;4.33;;
10347;SDS011;5220;43.192;23.284;2023-01-28T09:04:06;5.43;;;4.93;;
10347;SDS011;5220;43.192;23.284;2023-01-28T09:06:33;7.83;;;7.03;;
10347;SDS011;5220;43.192;23.284;2023-01-28T09:09:00;5.77;;;5.27;;
10347;SDS011;5220;43.192;23.284;2023-01-28T09:11:27;3.37;;;3.07;;
10347;SDS011;5220;43.192;23.284;2023-01-28T09:13:57;2.70;;;2.50;;
10347;SDS011;5220;43.192;23.284;2023-01-28T09:16:24;4.17;;;3.77;;
10347;SDS011;5220;43.192;23.284;2023-01-28T09:18:50;3.90;;;3.60;;
10347;SDS011;5220;43.192;23.284;2023-01-28T09:21:18;4.10;;;3.70;;
10347;SDS011;5220;43.192;23.284;2023-01-28T09:23:45;6.13;;;5.50;;
10347;SDS011;5220;43.192;23.284;2023-01-28T09:26:11;4.63;;;4.23;;
10347;SDS011;5220;43.192;23.284;2023-01-28T09:28:38;4.80;;;4.30;;
10347;SDS011;5220;43.192;23.284;2023-01-28T09:31:07;3.93;;;3.50;;
10347;SDS011;5220;43.192;23.284;2023-01-28T09:33:35;3.63;;;3.33;;
10347;SDS011;5220;43.192;23.284;2023-01-28T09:36:04;2.33;;;2.20;;
10347;SDS011;5220;43.192;23.284;2023-01-28T09:38:32;2.10;;;2.00;;
10347;SDS011;5220;43.192;23.284;2023-01-28T09:41:00;3.67;;;3.37;;
10347;SDS011;5220;43.192;23.284;2023-01-28T09:43:39;13.63;;;10.47;;
10347;SDS011;5220;43.192;23.284;2023-01-28T09:46:16;18.30;;;14.13;;
10347;SDS011;5220;43.192;23.284;2023-01-28T09:48:44;18.30;;;14.50;;
10347;SDS011;5220;43.192;23.284;2023-01-28T09:51:16;22.37;;;17.37;;
10347;SDS011;5220;43.192;23.284;2023-01-28T09:53:55;20.10;;;15.60;;
10347;SDS011;5220;43.192;23.284;2023-01-28T09:56:27;20.57;;;16.27;;
10347;SDS011;5220;43.192;23.284;2023-01-28T09:58:57;20.97;;;15.43;;
10347;SDS011;5220;43.192;23.284;2023-01-28T10:01:33;34.57;;;24.27;;
10347;SDS011;5220;43.192;23.284;2023-01-28T10:04:10;49.93;;;36.73;;
10347;SDS011;5220;43.192;23.284;2023-01-28T10:06:49;60.67;;;41.77;;
10347;SDS011;5220;43.192;23.284;2023-01-28T10:09:28;58.23;;;42.77;;
10347;SDS011;5220;43.192;23.284;2023-01-28T10:14:57;46.10;;;34.43;;
10347;SDS011;5220;43.192;23.284;2023-01-28T10:17:48;50.80;;;37.93;;
10347;SDS011;5220;43.192;23.284;2023-01-28T10:20:19;50.57;;;37.17;;
10347;SDS011;5220;43.192;23.284;2023-01-28T10:22:52;52.00;;;38.47;;
10347;SDS011;5220;43.192;23.284;2023-01-28T10:25:22;53.87;;;39.40;;
10347;SDS011;5220;43.192;23.284;2023-01-28T10:27:51;51.33;;;39.07;;
10347;SDS011;5220;43.192;23.284;2023-01-28T10:30:18;39.60;;;29.97;;
10347;SDS011;5220;43.192;23.284;2023-01-28T10:32:50;33.00;;;25.10;;
10347;SDS011;5220;43.192;23.284;2023-01-28T10:35:18;29.10;;;21.97;;
10347;SDS011;5220;43.192;23.284;2023-01-28T10:37:45;28.33;;;20.23;;
10347;SDS011;5220;43.192;23.284;2023-01-28T10:40:13;23.73;;;18.57;;
10347;SDS011;5220;43.192;23.284;2023-01-28T10:42:40;20.87;;;17.30;;
10347;SDS011;5220;43.192;23.284;2023-01-28T10:45:17;20.87;;;17.50;;
10347;SDS011;5220;43.192;23.284;2023-01-28T10:47:48;21.70;;;18.73;;
10347;SDS011;5220;43.192;23.284;2023-01-28T10:50:21;20.23;;;16.40;;
10347;SDS011;5220;43.192;23.284;2023-01-28T10:52:51;25.53;;;19.67;;
10347;SDS011;5220;43.192;23.284;2023-01-28T10:55:21;21.20;;;16.90;;
10347;SDS011;5220;43.192;23.284;2023-01-28T10:57:51;21.27;;;18.97;;
10347;SDS011;5220;43.192;23.284;2023-01-28T11:00:22;25.17;;;21.57;;
10347;SDS011;5220;43.192;23.284;2023-01-28T11:02:52;25.73;;;20.77;;
10347;SDS011;5220;43.192;23.284;2023-01-28T11:05:22;21.60;;;16.87;;
10347;SDS011;5220;43.192;23.284;2023-01-28T11:08:01;17.03;;;14.87;;
10347;SDS011;5220;43.192;23.284;2023-01-28T11:10:30;13.37;;;11.97;;
10347;SDS011;5220;43.192;23.284;2023-01-28T11:12:59;11.63;;;10.43;;
10347;SDS011;5220;43.192;23.284;2023-01-28T11:15:28;8.50;;;7.63;;
10347;SDS011;5220;43.192;23.284;2023-01-28T11:17:57;21.83;;;14.50;;
10347;SDS011;5220;43.192;23.284;2023-01-28T11:20:29;23.03;;;19.57;;
10347;SDS011;5220;43.192;23.284;2023-01-28T11:23:00;26.40;;;22.53;;
10347;SDS011;5220;43.192;23.284;2023-01-28T11:25:28;27.30;;;21.80;;
10347;SDS011;5220;43.192;23.284;2023-01-28T11:27:57;30.00;;;22.60;;
10347;SDS011;5220;43.192;23.284;2023-01-28T11:30:26;24.67;;;20.17;;
10347;SDS011;5220;43.192;23.284;2023-01-28T11:33:01;26.93;;;20.90;;
10347;SDS011;5220;43.192;23.284;2023-01-28T11:35:33;28.20;;;22.80;;
10347;SDS011;5220;43.192;23.284;2023-01-28T11:38:00;26.80;;;19.90;;
10347;SDS011;5220;43.192;23.284;2023-01-28T11:40:26;20.27;;;15.43;;
10347;SDS011;5220;43.192;23.284;2023-01-28T11:42:54;18.87;;;14.63;;
10347;SDS011;5220;43.192;23.284;2023-01-28T11:45:24;15.20;;;12.00;;
10347;SDS011;5220;43.192;23.284;2023-01-28T11:48:04;8.40;;;7.40;;
10347;SDS011;5220;43.192;23.284;2023-01-28T11:50:44;7.43;;;6.73;;
10347;SDS011;5220;43.192;23.284;2023-01-28T11:53:28;7.13;;;5.87;;
10347;SDS011;5220;43.192;23.284;2023-01-28T11:56:11;7.50;;;6.27;;
10347;SDS011;5220;43.192;23.284;2023-01-28T11:58:49;10.47;;;8.73;;
10347;SDS011;5220;43.192;23.284;2023-01-28T12:01:27;9.03;;;8.13;;
10347;SDS011;5220;43.192;23.284;2023-01-28T12:04:13;9.83;;;7.97;;
10347;SDS011;5220;43.192;23.284;2023-01-28T12:06:52;15.30;;;9.97;;
10347;SDS011;5220;43.192;23.284;2023-01-28T12:09:30;13.97;;;10.70;;
10347;SDS011;5220;43.192;23.284;2023-01-28T12:12:12;13.63;;;10.50;;
10347;SDS011;5220;43.192;23.284;2023-01-28T12:14:56;12.93;;;10.87;;
10347;SDS011;5220;43.192;23.284;2023-01-28T12:17:37;12.03;;;9.63;;
10347;SDS011;5220;43.192;23.284;2023-01-28T12:20:15;12.77;;;9.60;;
10347;SDS011;5220;43.192;23.284;2023-01-28T12:22:55;10.27;;;8.60;;
10347;SDS011;5220;43.192;23.284;2023-01-28T12:25:35;10.90;;;8.53;;
10347;SDS011;5220;43.192;23.284;2023-01-28T12:28:14;12.43;;;8.30;;
10347;SDS011;5220;43.192;23.284;2023-01-28T12:30:58;9.50;;;7.73;;
10347;SDS011;5220;43.192;23.284;2023-01-28T12:33:52;8.00;;;7.17;;
10347;SDS011;5220;43.192;23.284;2023-01-28T12:36:36;8.67;;;7.40;;
10347;SDS011;5220;43.192;23.284;2023-01-28T12:39:18;9.03;;;8.13;;
10347;SDS011;5220;43.192;23.284;2023-01-28T12:41:53;6.77;;;6.07;;
10347;SDS011;5220;43.192;23.284;2023-01-28T12:44:30;8.37;;;7.47;;
10347;SDS011;5220;43.192;23.284;2023-01-28T12:47:00;11.03;;;8.77;;
10347;SDS011;5220;43.192;23.284;2023-01-28T12:49:32;9.83;;;8.67;;
10347;SDS011;5220;43.192;23.284;2023-01-28T12:52:04;13.93;;;12.03;;
10347;SDS011;5220;43.192;23.284;2023-01-28T12:54:39;13.87;;;11.20;;
10347;SDS011;5220;43.192;23.284;2023-01-28T12:57:12;14.57;;;11.57;;
10347;SDS011;5220;43.192;23.284;2023-01-28T12:59:43;13.80;;;11.00;;
10347;SDS011;5220;43.192;23.284;2023-01-28T13:02:19;17.77;;;14.43;;
10347;SDS011;5220;43.192;23.284;2023-01-28T13:04:50;18.00;;;14.57;;
10347;SDS011;5220;43.192;23.284;2023-01-28T13:07:26;15.77;;;13.70;;
10347;SDS011;5220;43.192;23.284;2023-01-28T13:10:02;25.17;;;18.97;;
10347;SDS011;5220;43.192;23.284;2023-01-28T13:12:30;17.50;;;13.50;;
10347;SDS011;5220;43.192;23.284;2023-01-28T13:14:58;16.10;;;12.03;;
10347;SDS011;5220;43.192;23.284;2023-01-28T13:17:26;13.30;;;11.17;;
10347;SDS011;5220;43.192;23.284;2023-01-28T13:19:54;13.77;;;11.10;;
10347;SDS011;5220;43.192;23.284;2023-01-28T13:22:27;14.03;;;11.10;;
10347;SDS011;5220;43.192;23.284;2023-01-28T13:24:57;13.37;;;10.63;;
10347;SDS011;5220;43.192;23.284;2023-01-28T13:27:38;13.20;;;10.63;;
10347;SDS011;5220;43.192;23.284;2023-01-28T13:30:05;18.07;;;13.03;;
10347;SDS011;5220;43.192;23.284;2023-01-28T13:32:54;15.53;;;13.07;;
10347;SDS011;5220;43.192;23.284;2023-01-28T13:38:12;11.97;;;9.73;;
10347;SDS011;5220;43.192;23.284;2023-01-28T13:40:42;9.63;;;8.50;;
10347;SDS011;5220;43.192;23.284;2023-01-28T13:43:26;11.27;;;9.90;;
10347;SDS011;5220;43.192;23.284;2023-01-28T13:46:03;15.20;;;12.07;;
10347;SDS011;5220;43.192;23.284;2023-01-28T13:48:31;12.90;;;10.77;;
10347;SDS011;5220;43.192;23.284;2023-01-28T13:51:09;12.03;;;9.83;;
10347;SDS011;5220;43.192;23.284;2023-01-28T13:53:45;15.33;;;12.20;;
10347;SDS011;5220;43.192;23.284;2023-01-28T13:56:18;13.97;;;12.07;;
10347;SDS011;5220;43.192;23.284;2023-01-28T13:58:56;23.27;;;18.90;;
10347;SDS011;5220;43.192;23.284;2023-01-28T14:01:55;22.93;;;18.40;;
10347;SDS011;5220;43.192;23.284;2023-01-28T14:04:37;19.73;;;15.53;;
10347;SDS011;5220;43.192;23.284;2023-01-28T14:07:30;19.47;;;15.10;;
10347;SDS011;5220;43.192;23.284;2023-01-28T14:16:12;26.67;;;19.60;;
10347;SDS011;5220;43.192;23.284;2023-01-28T14:18:47;21.80;;;15.73;;
10347;SDS011;5220;43.192;23.284;2023-01-28T14:21:17;20.70;;;15.70;;
10347;SDS011;5220;43.192;23.284;2023-01-28T14:23:46;20.50;;;14.93;;
10347;SDS011;5220;43.192;23.284;2023-01-28T14:26:25;19.93;;;15.30;;
10347;SDS011;5220;43.192;23.284;2023-01-28T14:29:11;22.90;;;19.57;;
10347;SDS011;5220;43.192;23.284;2023-01-28T14:31:43;27.07;;;21.93;;
10347;SDS011;5220;43.192;23.284;2023-01-28T14:34:11;25.43;;;21.47;;
10347;SDS011;5220;43.192;23.284;2023-01-28T14:36:47;25.83;;;21.03;;
10347;SDS011;5220;43.192;23.284;2023-01-28T14:39:15;31.97;;;25.80;;
10347;SDS011;5220;43.192;23.284;2023-01-28T14:41:45;42.43;;;34.40;;
10347;SDS011;5220;43.192;23.284;2023-01-28T14:44:19;33.50;;;25.40;;
10347;SDS011;5220;43.192;23.284;2023-01-28T14:46:55;25.07;;;20.77;;
10347;SDS011;5220;43.192;23.284;2023-01-28T14:49:30;24.70;;;21.27;;
10347;SDS011;5220;43.192;23.284;2023-01-28T14:55:12;24.17;;;20.33;;
10347;SDS011;5220;43.192;23.284;2023-01-28T14:57:54;26.53;;;20.93;;
10347;SDS011;5220;43.192;23.284;2023-01-28T15:00:24;33.10;;;22.87;;
10347;SDS011;5220;43.192;23.284;2023-01-28T15:02:52;39.10;;;28.53;;
10347;SDS011;5220;43.192;23.284;2023-01-28T15:05:19;74.67;;;53.67;;
10347;SDS011;5220;43.192;23.284;2023-01-28T15:07:48;39.47;;;29.40;;
10347;SDS011;5220;43.192;23.284;2023-01-28T15:10:17;40.17;;;28.80;;
10347;SDS011;5220;43.192;23.284;2023-01-28T15:12:46;37.60;;;27.90;;